Rice, Texas
Current Conditions -  °F | °C
As of 4:53 PM on Saturday 20 Dec 2014 (Local Time) from KCRS Reporting Station
Haze Haze  
Wind Chill: 51°   Ceiling: 1700
Heat Index: 51°   Visibility: 6mi
Dew Point: 45°   Wind: 6mph
Humidity: 80%   Direction: 350°N
Pressure: 30.19"   Gusts: NA
Location:  32.24°N, 96.5°W
Report Text: KCRS 202253Z AUTO 35005KT 6SM HZ BKN017 OVC036 11/07 A3019 RMK AO2 SLP222 T01060072
Loading
Personal Weather Stations






























Interactive Weather Map New forecast layout! Learn more

10-Day Weather Forecast

Advertisements
Track Severe Weather on mobile